createdAt,value
2018-10-03T00:04:33.448Z,100514.63
2018-10-03T00:09:35.637Z,100504.06
2018-10-03T00:14:37.815Z,100509.06
2018-10-03T00:19:39.963Z,100505.05
2018-10-03T00:24:42.103Z,100502.80
2018-10-03T00:29:44.268Z,100509.73
2018-10-03T00:34:46.383Z,100533.00
2018-10-03T00:39:48.528Z,100521.56
2018-10-03T00:44:50.672Z,100543.25
2018-10-03T00:49:52.789Z,100528.31
2018-10-03T00:54:54.889Z,100530.95
2018-10-03T00:59:57.065Z,100535.95
2018-10-03T01:04:59.199Z,100545.77
2018-10-03T01:10:01.375Z,100540.25
2018-10-03T01:15:03.709Z,100539.81
2018-10-03T01:20:05.886Z,100543.90
2018-10-03T01:25:08.044Z,100533.92
2018-10-03T01:30:10.140Z,100527.97
2018-10-03T01:35:12.284Z,100544.77
2018-10-03T01:40:14.416Z,100540.95
2018-10-03T01:45:16.542Z,100552.14
2018-10-03T01:50:18.727Z,100561.62
2018-10-03T01:55:20.865Z,100566.97
2018-10-03T02:00:22.962Z,100584.05
2018-10-03T02:05:25.073Z,100568.15
2018-10-03T02:10:27.248Z,100592.00
2018-10-03T02:15:29.378Z,100598.86
2018-10-03T02:20:31.544Z,100599.91
2018-10-03T02:25:33.684Z,100606.61
2018-10-03T02:30:35.812Z,100611.66
2018-10-03T02:35:37.934Z,100611.61
2018-10-03T02:40:40.054Z,100613.86
2018-10-03T02:45:42.201Z,100616.83
2018-10-03T02:50:44.326Z,100611.79
2018-10-03T02:55:46.451Z,100618.09
2018-10-03T03:00:49.063Z,100627.67
2018-10-03T03:05:51.243Z,100634.03
2018-10-03T03:10:53.413Z,100644.30
2018-10-03T03:15:55.558Z,100654.30
2018-10-03T03:20:57.689Z,100661.05
2018-10-03T03:25:59.858Z,100677.84
2018-10-03T03:31:01.975Z,100676.32
2018-10-03T03:36:04.121Z,100695.07
2018-10-03T03:41:06.229Z,100693.56
2018-10-03T03:46:08.372Z,100708.70
2018-10-03T03:51:10.486Z,100706.66
2018-10-03T03:56:12.577Z,100718.42
2018-10-03T04:01:14.902Z,100731.67
2018-10-03T04:06:17.051Z,100738.50
2018-10-03T04:11:19.221Z,100742.78
2018-10-03T04:16:21.327Z,100753.00
2018-10-03T04:21:28.078Z,100755.87
2018-10-03T04:26:30.195Z,100762.73
2018-10-03T04:31:33.236Z,100764.00
2018-10-03T04:36:35.634Z,100779.09
2018-10-03T04:41:37.735Z,100794.58
2018-10-03T04:46:39.871Z,100803.75
2018-10-03T04:51:42.023Z,100795.55
2018-10-03T04:56:44.144Z,100804.53
2018-10-03T05:01:46.286Z,100817.02
2018-10-03T05:06:48.417Z,100834.63
2018-10-03T05:11:50.524Z,100852.34
2018-10-03T05:16:52.599Z,100863.83
2018-10-03T05:21:54.713Z,100873.78
2018-10-03T05:26:56.865Z,100876.05
2018-10-03T05:31:58.958Z,100892.70
2018-10-03T05:37:01.142Z,100898.23
2018-10-03T05:42:03.252Z,100911.97
2018-10-03T05:47:05.595Z,100921.53
2018-10-03T05:52:07.708Z,100943.56
2018-10-03T05:57:10.041Z,100950.48
2018-10-03T06:02:12.230Z,100958.81
2018-10-03T06:07:14.411Z,100972.11
2018-10-03T06:12:16.617Z,100982.66
2018-10-03T06:17:18.697Z,101000.92
2018-10-03T06:22:20.877Z,101006.75
2018-10-03T06:27:22.990Z,101021.31
2018-10-03T06:32:25.159Z,101034.33
2018-10-03T06:37:27.297Z,101038.42
2018-10-03T06:42:29.433Z,101053.64
2018-10-03T06:47:31.592Z,101060.20
2018-10-03T06:52:33.744Z,101083.72
2018-10-03T06:57:35.960Z,101087.52
2018-10-03T07:02:38.161Z,101097.84
2018-10-03T07:07:40.300Z,101107.64
2018-10-03T07:12:42.514Z,101124.20
2018-10-03T07:17:44.664Z,101128.69
2018-10-03T07:22:46.794Z,101133.69
2018-10-03T07:27:49.138Z,101145.59
2018-10-03T07:32:51.282Z,101160.45
2018-10-03T07:37:53.442Z,101177.20
2018-10-03T07:42:55.606Z,101195.87
2018-10-03T07:47:57.831Z,101191.88
2018-10-03T07:52:59.948Z,101207.66
2018-10-03T07:58:02.099Z,101225.36
2018-10-03T08:03:09.664Z,101240.20
2018-10-03T08:08:11.853Z,101246.38
2018-10-03T08:13:14.058Z,101262.00
2018-10-03T08:18:16.242Z,101262.39
2018-10-03T08:23:18.457Z,101267.64
2018-10-03T08:28:20.625Z,101292.16
2018-10-03T08:33:22.958Z,101295.30
2018-10-03T08:38:24.963Z,101309.58
2018-10-03T08:43:27.146Z,101312.78
2018-10-03T08:48:29.313Z,101309.83
2018-10-03T08:53:31.496Z,101329.98
2018-10-03T08:58:34.631Z,101341.86
2018-10-03T09:03:36.703Z,101347.64
2018-10-03T09:08:38.912Z,101358.61
2018-10-03T09:13:41.476Z,101353.36
2018-10-03T09:18:43.688Z,101368.83
2018-10-03T09:23:45.912Z,101387.28
2018-10-03T09:28:48.124Z,101385.55
2018-10-03T09:33:50.306Z,101373.99
2018-10-03T09:38:52.484Z,101409.47
2018-10-03T09:43:54.718Z,101405.73
2018-10-03T09:48:56.871Z,101414.62
2018-10-03T09:53:59.048Z,101425.36
2018-10-03T09:59:01.210Z,101439.70
2018-10-03T10:04:04.160Z,101449.56
2018-10-03T10:09:07.871Z,101461.55
2018-10-03T10:14:10.094Z,101468.18
2018-10-03T10:19:12.284Z,101475.02
2018-10-03T10:24:14.480Z,101485.39
2018-10-03T10:29:16.632Z,101499.68
2018-10-03T10:34:18.816Z,101498.41
2018-10-03T10:39:20.951Z,101486.02
2018-10-03T10:44:23.154Z,101500.09
2018-10-03T10:49:25.331Z,101507.59
2018-10-03T10:54:27.483Z,101502.35
2018-10-03T10:59:29.713Z,101512.33
2018-10-03T11:04:31.908Z,101528.51
2018-10-03T11:09:34.130Z,101534.73
2018-10-03T11:14:36.292Z,101535.00
2018-10-03T11:19:38.492Z,101542.45
2018-10-03T11:24:40.851Z,101550.98
2018-10-03T11:29:42.799Z,101557.42
2018-10-03T11:34:44.942Z,101556.97
2018-10-03T11:39:47.126Z,101565.92
2018-10-03T11:44:49.310Z,101558.34
2018-10-03T11:49:51.502Z,101555.14
2018-10-03T11:54:53.660Z,101565.13
2018-10-03T11:59:55.845Z,101577.20
2018-10-03T12:04:58.019Z,101575.36
2018-10-03T12:10:00.180Z,101579.39
2018-10-03T12:15:02.409Z,101581.91
2018-10-03T12:20:04.626Z,101597.31
2018-10-03T12:25:06.877Z,101598.93
2018-10-03T12:30:09.062Z,101597.23
2018-10-03T12:35:11.244Z,101605.80
2018-10-03T12:40:13.391Z,101617.99
2018-10-03T12:45:15.616Z,101647.99
2018-10-03T12:50:17.797Z,101663.34
2018-10-03T12:55:20.114Z,101640.58
2018-10-03T13:00:24.627Z,101644.06
2018-10-03T13:05:27.025Z,101658.61
2018-10-03T13:10:30.356Z,101661.33
2018-10-03T13:15:32.626Z,101675.20
2018-10-03T13:20:34.823Z,101670.70
2018-10-03T13:25:37.037Z,101634.98
2018-10-03T13:30:39.316Z,101685.92
2018-10-03T13:35:41.487Z,101674.13
2018-10-03T13:40:43.752Z,101674.09
2018-10-03T13:45:45.923Z,101680.25
2018-10-03T13:50:48.092Z,101674.06
2018-10-03T13:55:50.286Z,101678.53
2018-10-03T14:00:52.506Z,101687.19
2018-10-03T14:05:54.651Z,101684.98
2018-10-03T14:10:56.854Z,101694.16
2018-10-03T14:15:59.055Z,101696.30
2018-10-03T14:21:01.323Z,101691.98
2018-10-03T14:26:03.501Z,101704.77
2018-10-03T14:31:05.649Z,101715.98
2018-10-03T14:36:07.843Z,101725.74
2018-10-03T14:41:10.542Z,101739.31
2018-10-03T14:46:12.705Z,101740.22
2018-10-03T14:51:14.863Z,101739.17
2018-10-03T14:56:17.070Z,101738.23
2018-10-03T15:01:19.340Z,101742.42
2018-10-03T15:06:21.541Z,101749.89
2018-10-03T15:11:23.710Z,101765.98
2018-10-03T15:16:25.951Z,101751.34
2018-10-03T15:21:28.132Z,101753.05
2018-10-03T15:26:30.327Z,101754.04
2018-10-03T15:31:32.576Z,101752.63
2018-10-03T15:36:34.794Z,101763.58
2018-10-03T15:41:36.974Z,101766.52
2018-10-03T15:46:39.137Z,101774.05
2018-10-03T15:51:41.337Z,101782.19
2018-10-03T15:56:43.491Z,101782.99
2018-10-03T16:01:45.675Z,101783.31
2018-10-03T16:06:47.891Z,101789.23
2018-10-03T16:11:50.042Z,101790.91
2018-10-03T16:16:52.244Z,101794.23
2018-10-03T16:21:54.415Z,101798.47
2018-10-03T16:26:56.683Z,101794.42
2018-10-03T16:31:58.907Z,101792.42
2018-10-03T16:37:01.106Z,101789.60
2018-10-03T16:42:03.345Z,101722.93
2018-10-03T16:47:05.792Z,101812.22
2018-10-03T16:52:08.308Z,101814.30
2018-10-03T16:57:10.533Z,101817.95
2018-10-03T17:02:13.555Z,101808.88
2018-10-03T17:07:15.805Z,101816.70
2018-10-03T17:12:18.020Z,101824.70
2018-10-03T17:17:20.311Z,101847.22
2018-10-03T17:22:22.520Z,101841.20
2018-10-03T17:27:24.745Z,101850.78
2018-10-03T17:32:27.001Z,101840.98
2018-10-03T17:37:29.309Z,101852.95
2018-10-03T17:42:31.718Z,101851.66
2018-10-03T17:47:34.107Z,101865.00
2018-10-03T17:52:36.705Z,101869.52
2018-10-03T17:57:39.351Z,101875.58
2018-10-03T18:02:41.845Z,101882.64
2018-10-03T18:07:44.263Z,101885.12
2018-10-03T18:12:46.695Z,101898.67
2018-10-03T18:17:49.163Z,101897.52
2018-10-03T18:22:52.588Z,101899.33
2018-10-03T18:27:55.173Z,101900.59
2018-10-03T18:32:58.700Z,101906.23
2018-10-03T18:38:02.736Z,101904.02
2018-10-03T18:43:06.462Z,101913.09
2018-10-03T18:48:10.223Z,101919.88
2018-10-03T18:53:12.951Z,101923.69
2018-10-03T18:58:16.975Z,101930.34
2018-10-03T19:03:19.908Z,101924.27
2018-10-03T19:08:22.680Z,101934.67
2018-10-03T19:13:26.159Z,101939.41
2018-10-03T19:18:29.501Z,101938.92
2018-10-03T19:23:33.064Z,101938.54
2018-10-03T19:28:35.905Z,101950.11
2018-10-03T19:33:39.553Z,101945.14
2018-10-03T19:38:42.925Z,101946.86
2018-10-03T19:43:46.358Z,101951.24
2018-10-03T19:48:49.582Z,101954.66
2018-10-03T19:53:52.189Z,101953.22
2018-10-03T19:58:55.059Z,101962.35
2018-10-03T20:03:57.559Z,101966.16
2018-10-03T20:09:00.278Z,101956.44
2018-10-03T20:14:04.134Z,101971.76
2018-10-03T20:19:06.964Z,101975.55
2018-10-03T20:24:09.406Z,101977.95
2018-10-03T20:29:11.839Z,101979.37
2018-10-03T20:34:14.158Z,101983.50
2018-10-03T20:39:16.454Z,101979.23
2018-10-03T20:44:18.689Z,101981.06
2018-10-03T20:49:21.053Z,101985.20
2018-10-03T20:54:23.352Z,101985.98
2018-10-03T20:59:25.726Z,101984.72
2018-10-03T21:04:27.993Z,101970.56
2018-10-03T21:09:30.150Z,101972.28
2018-10-03T21:14:32.309Z,101971.19
2018-10-03T21:19:34.528Z,101979.41
2018-10-03T21:24:36.684Z,101983.84
2018-10-03T21:29:39.140Z,101981.69
2018-10-03T21:34:41.332Z,101986.93
2018-10-03T21:39:43.522Z,101981.38
2018-10-03T21:44:45.850Z,101982.02
2018-10-03T21:49:48.102Z,101980.37
2018-10-03T21:54:50.249Z,101981.39
2018-10-03T21:59:52.417Z,101986.69
2018-10-03T22:04:54.564Z,101981.25
2018-10-03T22:09:56.722Z,101974.91
2018-10-03T22:14:58.879Z,101976.98
2018-10-03T22:20:01.077Z,101985.28
2018-10-03T22:25:03.626Z,101988.38
2018-10-03T22:30:05.872Z,101985.91
2018-10-03T22:35:08.008Z,101988.38
2018-10-03T22:40:10.191Z,101990.97
2018-10-03T22:45:12.351Z,101993.50
2018-10-03T22:50:14.485Z,101987.11
2018-10-03T22:55:16.638Z,101992.17
2018-10-03T23:00:18.794Z,101987.63
2018-10-03T23:05:20.939Z,101996.42
2018-10-03T23:10:23.104Z,101997.76
2018-10-03T23:15:25.283Z,101988.76
2018-10-03T23:20:27.439Z,101982.74
2018-10-03T23:25:29.567Z,101979.27
2018-10-03T23:30:31.692Z,101996.42
2018-10-03T23:35:33.810Z,101997.30
2018-10-03T23:40:35.939Z,102000.16
2018-10-03T23:45:38.204Z,102004.72
2018-10-03T23:50:40.360Z,101999.66
2018-10-03T23:55:42.460Z,102003.70
